Wilbur Observed Data For Previous 48 Hours

Caption
Day and Hour Reservoir Elevation (behind dam)* Tailwater Elevation (below dam)* Average Hourly Discharge*
1/27/2020 2 AM EST 1,647.33 1,583.53 235
1/27/2020 3 AM EST 1,646.97 1,583.52 233
1/27/2020 4 AM EST 1,646.64 1,583.50 230
1/27/2020 5 AM EST 1,646.31 1,583.48 225
1/27/2020 6 AM EST 1,645.96 1,583.48 223
1/27/2020 7 AM EST 1,645.62 1,583.46 220
1/27/2020 8 AM EST 1,646.74 1,584.25 223
1/27/2020 9 AM EST 1,646.78 1,585.90 1,691
1/27/2020 10 AM EST 1,646.86 1,585.92 1,744
1/27/2020 11 AM EST 1,646.87 1,585.90 1,744
1/27/2020 12 PM EST 1,646.91 1,585.93 1,742
1/27/2020 1 PM EST 1,646.97 1,585.92 1,741
1/27/2020 2 PM EST 1,647.01 1,585.91 1,741
1/27/2020 3 PM EST 1,647.06 1,585.92 1,739
1/27/2020 4 PM EST 1,647.14 1,585.90 1,741
1/27/2020 5 PM EST 1,647.17 1,585.91 1,742
1/27/2020 6 PM EST 1,647.21 1,585.92 1,748
1/27/2020 7 PM EST 1,647.23 1,585.91 1,746
1/27/2020 8 PM EST 1,647.27 1,585.90 1,743
1/27/2020 9 PM EST 1,647.32 1,585.92 1,741
1/27/2020 10 PM EST 1,647.37 1,585.91 1,744
1/27/2020 11 PM EST 1,647.56 1,585.90 1,743
1/28/2020 12 AM EST 1,647.41 1,583.53 274
1/28/2020 1 AM EST 1,647.07 1,583.51 234
1/28/2020 2 AM EST 1,646.75 1,583.50 230
1/28/2020 3 AM EST 1,646.42 1,583.48 227
1/28/2020 4 AM EST 1,646.07 1,583.48 225
1/28/2020 5 AM EST 1,645.75 1,583.46 220
1/28/2020 6 AM EST 1,645.40 1,583.45 218
1/28/2020 7 AM EST 1,647.35 1,584.26 225
1/28/2020 8 AM EST 1,647.45 1,585.93 1,684
1/28/2020 9 AM EST 1,647.51 1,585.92 1,740
1/28/2020 10 AM EST 1,647.52 1,585.92 1,747
1/28/2020 11 AM EST 1,649.44 1,583.58 283
1/28/2020 12 PM EST 1,649.23 1,583.58 250
1/28/2020 1 PM EST 1,648.91 1,583.57 250
1/28/2020 2 PM EST 1,648.50 1,583.82 246
1/28/2020 3 PM EST 1,648.02 1,583.59 242
1/28/2020 4 PM EST 1,647.68 1,583.56 240
1/28/2020 5 PM EST 1,647.33 1,583.56 235
1/28/2020 6 PM EST 1,647.01 1,583.54 233
1/28/2020 7 PM EST 1,646.64 1,583.52 230
1/28/2020 8 PM EST 1,648.47 1,584.37 236
1/28/2020 9 PM EST 1,648.55 1,585.91 1,710
1/28/2020 10 PM EST 1,648.56 1,585.95 1,756
1/28/2020 11 PM EST 1,648.56 1,585.94 1,759
1/29/2020 12 AM EST 1,648.32 1,583.60 285
1/29/2020 1 AM EST 1,647.96 1,583.58 241
1/29/2020 2 AM EST 1,647.64 1,583.57 239
1/29/2020 3 AM EST 1,647.31 1,583.56 235
1/29/2020 4 AM EST 1,646.95 1,583.54 232
1/29/2020 5 AM EST 1,646.61 1,583.53 230
1/29/2020 6 AM EST 1,646.25 1,583.51 225
1/29/2020 7 AM EST 1,645.92 1,583.51 223
1/29/2020 8 AM EST 1,647.11 1,583.54 226
1/29/2020 9 AM EST 1,648.31 1,583.59 237
1/29/2020 10 AM EST 1,648.96 1,583.61 246
1/29/2020 11 AM EST 1,648.65 1,583.60 247
1/29/2020 12 PM EST 1,648.33 1,583.60 245
1/29/2020 1 PM EST 1,647.97 1,583.58 241
1/29/2020 2 PM EST 1,647.63 1,583.57 239

Elevations are in feet above sea level. Discharges are in cubic feet per second and are reported at the end of the hour.